sensor_id;sensor_type;location;lat;lon;timestamp;pressure;altitude;pressure_sealevel;temperature;humidity
38227;BME280;24026;49.446;8.576;2023-03-15T00:00:04;100238.47;;;13.18;48.87
38227;BME280;24026;49.446;8.576;2023-03-15T00:02:25;100239.53;;;13.17;48.79
38227;BME280;24026;49.446;8.576;2023-03-15T00:04:46;100247.53;;;13.17;48.66
38227;BME280;24026;49.446;8.576;2023-03-15T00:07:06;100250.72;;;13.14;48.60
38227;BME280;24026;49.446;8.576;2023-03-15T00:09:27;100253.13;;;13.15;48.63
38227;BME280;24026;49.446;8.576;2023-03-15T00:11:47;100257.13;;;13.13;48.67
38227;BME280;24026;49.446;8.576;2023-03-15T00:14:09;100260.59;;;13.13;48.51
38227;BME280;24026;49.446;8.576;2023-03-15T00:16:29;100258.19;;;13.12;48.37
38227;BME280;24026;49.446;8.576;2023-03-15T00:18:53;100267.25;;;13.11;48.44
38227;BME280;24026;49.446;8.576;2023-03-15T00:21:14;100270.19;;;13.09;48.43
38227;BME280;24026;49.446;8.576;2023-03-15T00:23:34;100278.44;;;13.08;48.47
38227;BME280;24026;49.446;8.576;2023-03-15T00:25:55;100276.84;;;13.07;48.54
38227;BME280;24026;49.446;8.576;2023-03-15T00:28:15;100285.66;;;13.07;48.36
38227;BME280;24026;49.446;8.576;2023-03-15T00:30:36;100295.53;;;13.07;48.43
38227;BME280;24026;49.446;8.576;2023-03-15T00:32:56;100292.84;;;13.02;48.48
38227;BME280;24026;49.446;8.576;2023-03-15T00:35:17;100298.19;;;13.02;48.44
38227;BME280;24026;49.446;8.576;2023-03-15T00:37:37;100299.75;;;13.03;48.46
38227;BME280;24026;49.446;8.576;2023-03-15T00:39:58;100298.19;;;13.02;48.34
38227;BME280;24026;49.446;8.576;2023-03-15T00:42:18;100298.44;;;13.00;48.01
38227;BME280;24026;49.446;8.576;2023-03-15T00:44:39;100296.56;;;13.01;48.34
38227;BME280;24026;49.446;8.576;2023-03-15T00:47:00;100299.47;;;12.99;48.29
38227;BME280;24026;49.446;8.576;2023-03-15T00:49:21;100310.16;;;12.99;48.21
38227;BME280;24026;49.446;8.576;2023-03-15T00:51:41;100305.91;;;12.98;48.20
38227;BME280;24026;49.446;8.576;2023-03-15T00:54:02;100313.91;;;12.98;48.24
38227;BME280;24026;49.446;8.576;2023-03-15T00:56:25;100318.41;;;12.97;48.21
38227;BME280;24026;49.446;8.576;2023-03-15T00:58:46;100319.50;;;12.96;48.19
38227;BME280;24026;49.446;8.576;2023-03-15T01:01:07;100318.41;;;12.97;47.97
38227;BME280;24026;49.446;8.576;2023-03-15T01:03:28;100330.16;;;12.96;47.96
38227;BME280;24026;49.446;8.576;2023-03-15T01:05:49;100325.09;;;12.95;47.73
38227;BME280;24026;49.446;8.576;2023-03-15T01:08:09;100329.84;;;12.93;48.05
38227;BME280;24026;49.446;8.576;2023-03-15T01:10:29;100327.47;;;12.91;47.93
38227;BME280;24026;49.446;8.576;2023-03-15T01:12:50;100329.81;;;12.88;48.01
38227;BME280;24026;49.446;8.576;2023-03-15T01:15:12;100335.16;;;12.88;48.09
38227;BME280;24026;49.446;8.576;2023-03-15T01:17:33;100340.25;;;12.89;47.96
38227;BME280;24026;49.446;8.576;2023-03-15T01:19:53;100334.63;;;12.86;47.91
38227;BME280;24026;49.446;8.576;2023-03-15T01:22:14;100339.97;;;12.86;47.87
38227;BME280;24026;49.446;8.576;2023-03-15T01:24:34;100337.53;;;12.84;47.98
38227;BME280;24026;49.446;8.576;2023-03-15T01:26:55;100339.16;;;12.85;47.91
38227;BME280;24026;49.446;8.576;2023-03-15T01:29:15;100348.22;;;12.84;48.02
38227;BME280;24026;49.446;8.576;2023-03-15T01:31:37;100345.81;;;12.83;47.99
38227;BME280;24026;49.446;8.576;2023-03-15T01:33:57;100339.66;;;12.82;47.99
38227;BME280;24026;49.446;8.576;2023-03-15T01:36:18;100345.00;;;12.82;47.83
38227;BME280;24026;49.446;8.576;2023-03-15T01:38:39;100344.22;;;12.82;47.61
38227;BME280;24026;49.446;8.576;2023-03-15T01:40:59;100340.97;;;12.79;47.60
38227;BME280;24026;49.446;8.576;2023-03-15T01:43:22;100347.38;;;12.78;47.36
38227;BME280;24026;49.446;8.576;2023-03-15T01:48:23;100355.09;;;12.75;47.79
38227;BME280;24026;49.446;8.576;2023-03-15T01:50:45;100352.69;;;12.73;47.31
38227;BME280;24026;49.446;8.576;2023-03-15T01:53:05;100359.63;;;12.74;47.66
38227;BME280;24026;49.446;8.576;2023-03-15T01:55:25;100356.41;;;12.72;47.65
38227;BME280;24026;49.446;8.576;2023-03-15T01:57:50;100362.53;;;12.73;47.63
38227;BME280;24026;49.446;8.576;2023-03-15T02:00:18;100355.88;;;12.70;47.61
38227;BME280;24026;49.446;8.576;2023-03-15T02:02:40;100363.06;;;12.70;47.34
38227;BME280;24026;49.446;8.576;2023-03-15T02:05:08;100365.41;;;12.66;47.36
38227;BME280;24026;49.446;8.576;2023-03-15T02:07:31;100366.50;;;12.65;47.53
38227;BME280;24026;49.446;8.576;2023-03-15T02:12:25;100376.09;;;12.66;47.28
38227;BME280;24026;49.446;8.576;2023-03-15T02:14:48;100376.38;;;12.65;47.35
38227;BME280;24026;49.446;8.576;2023-03-15T02:17:10;100376.63;;;12.63;47.19
38227;BME280;24026;49.446;8.576;2023-03-15T02:22:41;100378.69;;;12.56;47.39
38227;BME280;24026;49.446;8.576;2023-03-15T02:25:17;100375.50;;;12.59;47.17
38227;BME280;24026;49.446;8.576;2023-03-15T02:27:39;100378.19;;;12.59;46.91
38227;BME280;24026;49.446;8.576;2023-03-15T02:30:00;100386.97;;;12.59;47.12
38227;BME280;24026;49.446;8.576;2023-03-15T02:32:22;100379.25;;;12.58;47.17
38227;BME280;24026;49.446;8.576;2023-03-15T02:34:42;100378.69;;;12.56;47.17
38227;BME280;24026;49.446;8.576;2023-03-15T02:37:03;100386.69;;;12.56;47.01
38227;BME280;24026;49.446;8.576;2023-03-15T02:39:23;100390.97;;;12.57;47.06
38227;BME280;24026;49.446;8.576;2023-03-15T02:41:51;100395.75;;;12.55;47.16
38227;BME280;24026;49.446;8.576;2023-03-15T02:44:32;100401.03;;;12.50;46.90
38227;BME280;24026;49.446;8.576;2023-03-15T02:46:57;100408.78;;;12.51;47.02
38227;BME280;24026;49.446;8.576;2023-03-15T02:49:22;100402.63;;;12.51;47.14
38227;BME280;24026;49.446;8.576;2023-03-15T02:51:44;100410.38;;;12.52;47.13
38227;BME280;24026;49.446;8.576;2023-03-15T02:54:05;100417.28;;;12.48;47.13
38227;BME280;24026;49.446;8.576;2023-03-15T02:56:25;100420.50;;;12.50;46.77
38227;BME280;24026;49.446;8.576;2023-03-15T02:58:46;100422.38;;;12.50;47.07
38227;BME280;24026;49.446;8.576;2023-03-15T03:01:06;100423.66;;;12.47;47.07
38227;BME280;24026;49.446;8.576;2023-03-15T03:03:27;100428.19;;;12.47;47.12
38227;BME280;24026;49.446;8.576;2023-03-15T03:05:47;100431.66;;;12.47;46.88
38227;BME280;24026;49.446;8.576;2023-03-15T03:08:08;100440.69;;;12.46;47.04
38227;BME280;24026;49.446;8.576;2023-03-15T03:10:28;100438.88;;;12.47;47.08
38227;BME280;24026;49.446;8.576;2023-03-15T03:12:49;100442.56;;;12.46;46.99
38227;BME280;24026;49.446;8.576;2023-03-15T03:15:12;100442.03;;;12.44;46.77
38227;BME280;24026;49.446;8.576;2023-03-15T03:17:33;100448.41;;;12.42;46.95
38227;BME280;24026;49.446;8.576;2023-03-15T03:19:56;100450.28;;;12.42;46.76
38227;BME280;24026;49.446;8.576;2023-03-15T03:22:17;100449.19;;;12.38;46.93
38227;BME280;24026;49.446;8.576;2023-03-15T03:24:37;100453.44;;;12.39;46.90
38227;BME280;24026;49.446;8.576;2023-03-15T03:26:58;100459.84;;;12.38;46.93
38227;BME280;24026;49.446;8.576;2023-03-15T03:29:19;100464.34;;;12.37;46.89
38227;BME280;24026;49.446;8.576;2023-03-15T03:31:39;100464.34;;;12.37;46.65
38227;BME280;24026;49.446;8.576;2023-03-15T03:34:01;100472.84;;;12.34;46.93
38227;BME280;24026;49.446;8.576;2023-03-15T03:36:21;100474.47;;;12.35;46.51
38227;BME280;24026;49.446;8.576;2023-03-15T03:38:45;100469.94;;;12.36;46.51
38227;BME280;24026;49.446;8.576;2023-03-15T03:41:06;100473.66;;;12.35;46.56
38227;BME280;24026;49.446;8.576;2023-03-15T03:43:26;100473.91;;;12.33;46.64
38227;BME280;24026;49.446;8.576;2023-03-15T03:45:46;100476.03;;;12.31;46.62
38227;BME280;24026;49.446;8.576;2023-03-15T03:48:07;100477.09;;;12.30;46.63
38227;BME280;24026;49.446;8.576;2023-03-15T03:50:28;100485.06;;;12.30;46.59
38227;BME280;24026;49.446;8.576;2023-03-15T03:52:48;100485.06;;;12.30;46.45
38227;BME280;24026;49.446;8.576;2023-03-15T03:55:10;100488.78;;;12.29;46.50
38227;BME280;24026;49.446;8.576;2023-03-15T03:57:32;100489.03;;;12.28;46.55
38227;BME280;24026;49.446;8.576;2023-03-15T03:59:53;100489.84;;;12.28;46.28
38227;BME280;24026;49.446;8.576;2023-03-15T04:02:13;100491.16;;;12.26;46.35
38227;BME280;24026;49.446;8.576;2023-03-15T04:04:33;100489.28;;;12.26;46.47
38227;BME280;24026;49.446;8.576;2023-03-15T04:06:54;100498.34;;;12.25;46.45
38227;BME280;24026;49.446;8.576;2023-03-15T04:09:15;100500.47;;;12.23;46.37
38227;BME280;24026;49.446;8.576;2023-03-15T04:11:35;100494.56;;;12.21;46.43
38227;BME280;24026;49.446;8.576;2023-03-15T04:13:56;100494.31;;;12.22;46.53
38227;BME280;24026;49.446;8.576;2023-03-15T04:16:16;100508.94;;;12.20;46.34
38227;BME280;24026;49.446;8.576;2023-03-15T04:18:37;100503.63;;;12.20;46.37
38227;BME280;24026;49.446;8.576;2023-03-15T04:20:59;100509.75;;;12.20;46.49
38227;BME280;24026;49.446;8.576;2023-03-15T04:23:21;100510.00;;;12.19;46.29
38227;BME280;24026;49.446;8.576;2023-03-15T04:25:42;100503.88;;;12.18;46.24
38227;BME280;24026;49.446;8.576;2023-03-15T04:28:02;100514.78;;;12.17;46.28
38227;BME280;24026;49.446;8.576;2023-03-15T04:30:27;100509.69;;;12.15;46.23
38227;BME280;24026;49.446;8.576;2023-03-15T04:32:47;100512.34;;;12.15;46.36
38227;BME280;24026;49.446;8.576;2023-03-15T04:35:08;100512.34;;;12.15;46.20
38227;BME280;24026;49.446;8.576;2023-03-15T04:37:29;100512.59;;;12.14;46.29
38227;BME280;24026;49.446;8.576;2023-03-15T04:39:51;100513.63;;;12.13;46.21
38227;BME280;24026;49.446;8.576;2023-03-15T04:42:11;100510.44;;;12.11;46.18
38227;BME280;24026;49.446;8.576;2023-03-15T04:44:32;100515.75;;;12.11;46.14
38227;BME280;24026;49.446;8.576;2023-03-15T04:46:55;100526.41;;;12.11;46.15
38227;BME280;24026;49.446;8.576;2023-03-15T04:49:17;100526.41;;;12.11;46.06
38227;BME280;24026;49.446;8.576;2023-03-15T04:51:37;100527.72;;;12.08;46.11
38227;BME280;24026;49.446;8.576;2023-03-15T04:53:58;100526.66;;;12.09;46.05
38227;BME280;24026;49.446;8.576;2023-03-15T04:56:18;100521.56;;;12.08;46.00
38227;BME280;24026;49.446;8.576;2023-03-15T04:58:39;100519.44;;;12.04;46.21
38227;BME280;24026;49.446;8.576;2023-03-15T05:00:59;100520.22;;;12.05;46.08
38227;BME280;24026;49.446;8.576;2023-03-15T05:03:19;100517.81;;;12.03;46.04
38227;BME280;24026;49.446;8.576;2023-03-15T05:05:40;100522.09;;;12.04;46.07
38227;BME280;24026;49.446;8.576;2023-03-15T05:08:00;100512.47;;;12.03;46.10
38227;BME280;24026;49.446;8.576;2023-03-15T05:10:21;100514.84;;;12.00;45.87
38227;BME280;24026;49.446;8.576;2023-03-15T05:12:41;100527.09;;;12.01;46.00
38227;BME280;24026;49.446;8.576;2023-03-15T05:15:01;100529.50;;;12.02;46.07
38227;BME280;24026;49.446;8.576;2023-03-15T05:17:22;100534.28;;;12.00;46.01
38227;BME280;24026;49.446;8.576;2023-03-15T05:19:42;100531.63;;;12.00;45.63
38227;BME280;24026;49.446;8.576;2023-03-15T05:22:03;100530.00;;;11.99;45.84
38227;BME280;24026;49.446;8.576;2023-03-15T05:24:23;100535.59;;;11.98;45.91
38227;BME280;24026;49.446;8.576;2023-03-15T05:26:44;100539.59;;;12.00;45.95
38227;BME280;24026;49.446;8.576;2023-03-15T05:29:05;100536.41;;;11.98;45.82
38227;BME280;24026;49.446;8.576;2023-03-15T05:31:26;100534.78;;;11.97;45.86
38227;BME280;24026;49.446;8.576;2023-03-15T05:33:46;100544.06;;;11.95;45.64
38227;BME280;24026;49.446;8.576;2023-03-15T05:36:06;100537.44;;;11.97;45.74
38227;BME280;24026;49.446;8.576;2023-03-15T05:38:27;100542.59;;;12.04;45.55
38227;BME280;24026;49.446;8.576;2023-03-15T05:40:47;100554.19;;;12.15;45.41
38227;BME280;24026;49.446;8.576;2023-03-15T05:43:08;100555.09;;;12.26;44.94
38227;BME280;24026;49.446;8.576;2023-03-15T05:45:28;100557.41;;;12.39;44.73
38227;BME280;24026;49.446;8.576;2023-03-15T05:47:49;100569.53;;;12.52;44.53
38227;BME280;24026;49.446;8.576;2023-03-15T05:50:10;100576.34;;;12.65;44.00
38227;BME280;24026;49.446;8.576;2023-03-15T05:52:30;100567.13;;;12.77;43.94
38227;BME280;24026;49.446;8.576;2023-03-15T05:54:51;100561.91;;;12.88;43.67
38227;BME280;24026;49.446;8.576;2023-03-15T05:57:11;100554.00;;;12.98;43.28
38227;BME280;24026;49.446;8.576;2023-03-15T05:59:32;100551.97;;;13.10;43.17
38227;BME280;24026;49.446;8.576;2023-03-15T06:01:52;100569.69;;;13.22;43.04
38227;BME280;24026;49.446;8.576;2023-03-15T06:04:13;100568.13;;;13.31;42.77
38227;BME280;24026;49.446;8.576;2023-03-15T06:06:33;100568.81;;;13.43;42.77
38227;BME280;24026;49.446;8.576;2023-03-15T06:08:53;100565.69;;;13.51;42.34
38227;BME280;24026;49.446;8.576;2023-03-15T06:11:14;100561.44;;;13.61;42.83
38227;BME280;24026;49.446;8.576;2023-03-15T06:13:35;100574.59;;;13.73;42.48
38227;BME280;24026;49.446;8.576;2023-03-15T06:15:55;100576.78;;;13.81;42.30
38227;BME280;24026;49.446;8.576;2023-03-15T06:18:16;100584.06;;;13.90;42.24
38227;BME280;24026;49.446;8.576;2023-03-15T06:20:36;100585.72;;;13.97;42.02
38227;BME280;24026;49.446;8.576;2023-03-15T06:22:57;100590.84;;;14.08;41.91
38227;BME280;24026;49.446;8.576;2023-03-15T06:25:18;100598.66;;;14.20;41.88
38227;BME280;24026;49.446;8.576;2023-03-15T06:27:38;100600.31;;;14.32;41.48
38227;BME280;24026;49.446;8.576;2023-03-15T06:29:59;100591.22;;;14.38;41.44
38227;BME280;24026;49.446;8.576;2023-03-15T06:32:19;100598.50;;;14.48;41.23
38227;BME280;24026;49.446;8.576;2023-03-15T06:34:39;100596.63;;;14.53;40.97
38227;BME280;24026;49.446;8.576;2023-03-15T06:37:00;100602.59;;;14.60;41.41
38227;BME280;24026;49.446;8.576;2023-03-15T06:39:20;100595.38;;;14.66;41.42
38227;BME280;24026;49.446;8.576;2023-03-15T06:41:41;100606.09;;;14.76;40.88
38227;BME280;24026;49.446;8.576;2023-03-15T06:44:01;100604.25;;;14.82;40.71
38227;BME280;24026;49.446;8.576;2023-03-15T06:46:21;100604.50;;;14.75;41.29
38227;BME280;24026;49.446;8.576;2023-03-15T06:48:42;100607.97;;;14.81;41.09
38227;BME280;24026;49.446;8.576;2023-03-15T06:51:03;100606.69;;;14.94;40.50
38227;BME280;24026;49.446;8.576;2023-03-15T06:53:25;100609.63;;;15.03;40.46
38227;BME280;24026;49.446;8.576;2023-03-15T06:55:46;100617.94;;;15.11;40.28
38227;BME280;24026;49.446;8.576;2023-03-15T06:58:06;100630.53;;;15.21;40.61
38227;BME280;24026;49.446;8.576;2023-03-15T07:00:27;100622.25;;;15.33;40.49
38227;BME280;24026;49.446;8.576;2023-03-15T07:02:48;100632.69;;;15.45;40.42
38227;BME280;24026;49.446;8.576;2023-03-15T07:05:09;100628.41;;;15.49;40.34
38227;BME280;24026;49.446;8.576;2023-03-15T07:07:30;100633.25;;;15.57;40.49
38227;BME280;24026;49.446;8.576;2023-03-15T07:09:50;100634.28;;;15.66;40.15
38227;BME280;24026;49.446;8.576;2023-03-15T07:12:11;100627.88;;;15.78;39.96
38227;BME280;24026;49.446;8.576;2023-03-15T07:14:41;100625.47;;;15.81;40.03
38227;BME280;24026;49.446;8.576;2023-03-15T07:17:01;100619.53;;;15.95;39.92
38227;BME280;24026;49.446;8.576;2023-03-15T07:19:22;100623.00;;;16.00;39.94
38227;BME280;24026;49.446;8.576;2023-03-15T07:21:42;100636.94;;;16.07;39.51
38227;BME280;24026;49.446;8.576;2023-03-15T07:24:03;100637.97;;;16.17;39.42
38227;BME280;24026;49.446;8.576;2023-03-15T07:26:23;100643.56;;;16.25;39.33
38227;BME280;24026;49.446;8.576;2023-03-15T07:28:44;100654.56;;;16.34;39.04
38227;BME280;24026;49.446;8.576;2023-03-15T07:31:05;100660.44;;;16.41;38.99
38227;BME280;24026;49.446;8.576;2023-03-15T07:33:27;100657.72;;;16.46;39.12
38227;BME280;24026;49.446;8.576;2023-03-15T07:35:52;100662.03;;;16.47;39.13
38227;BME280;24026;49.446;8.576;2023-03-15T07:38:14;100669.50;;;16.56;38.85
38227;BME280;24026;49.446;8.576;2023-03-15T07:40:35;100669.50;;;16.61;38.85
38227;BME280;24026;49.446;8.576;2023-03-15T07:42:56;100667.31;;;16.63;38.95
38227;BME280;24026;49.446;8.576;2023-03-15T07:45:17;100669.72;;;16.70;38.59
38227;BME280;24026;49.446;8.576;2023-03-15T07:47:38;100687.66;;;16.79;38.25
38227;BME280;24026;49.446;8.576;2023-03-15T07:50:00;100678.00;;;16.73;38.31
38227;BME280;24026;49.446;8.576;2023-03-15T07:52:21;100680.91;;;16.82;38.21
38227;BME280;24026;49.446;8.576;2023-03-15T07:54:42;100679.06;;;16.88;37.81
38227;BME280;24026;49.446;8.576;2023-03-15T07:57:02;100676.59;;;16.96;37.60
38227;BME280;24026;49.446;8.576;2023-03-15T07:59:23;100679.00;;;16.98;37.64
38227;BME280;24026;49.446;8.576;2023-03-15T08:01:44;100671.16;;;17.07;37.72
38227;BME280;24026;49.446;8.576;2023-03-15T08:04:04;100677.00;;;17.14;37.79
38227;BME280;24026;49.446;8.576;2023-03-15T08:06:25;100670.81;;;17.18;37.14
38227;BME280;24026;49.446;8.576;2023-03-15T08:08:45;100668.38;;;17.22;36.99
38227;BME280;24026;49.446;8.576;2023-03-15T08:11:06;100678.06;;;17.18;37.01
38227;BME280;24026;49.446;8.576;2023-03-15T08:13:26;100670.88;;;17.08;37.13
38227;BME280;24026;49.446;8.576;2023-03-15T08:15:47;100684.13;;;16.94;37.60
38227;BME280;24026;49.446;8.576;2023-03-15T08:18:07;100683.06;;;16.80;38.20
38227;BME280;24026;49.446;8.576;2023-03-15T08:20:28;100680.16;;;16.76;38.00
38227;BME280;24026;49.446;8.576;2023-03-15T08:22:49;100683.44;;;16.63;38.33
38227;BME280;24026;49.446;8.576;2023-03-15T08:25:12;100681.34;;;16.44;38.55
38227;BME280;24026;49.446;8.576;2023-03-15T08:27:34;100691.06;;;16.25;38.91
38227;BME280;24026;49.446;8.576;2023-03-15T08:29:54;100686.50;;;16.20;39.04
38227;BME280;24026;49.446;8.576;2023-03-15T08:32:16;100689.22;;;16.05;39.54
38227;BME280;24026;49.446;8.576;2023-03-15T08:34:37;100686.78;;;16.08;39.51
38227;BME280;24026;49.446;8.576;2023-03-15T08:36:58;100692.13;;;16.14;39.17
38227;BME280;24026;49.446;8.576;2023-03-15T08:39:18;100689.44;;;16.19;38.96
38227;BME280;24026;49.446;8.576;2023-03-15T08:41:39;100686.75;;;16.34;38.42
38227;BME280;24026;49.446;8.576;2023-03-15T08:44:00;100696.91;;;16.47;37.76
38227;BME280;24026;49.446;8.576;2023-03-15T08:46:20;100694.97;;;16.58;37.94
38227;BME280;24026;49.446;8.576;2023-03-15T08:48:40;100694.13;;;16.68;37.62
38227;BME280;24026;49.446;8.576;2023-03-15T08:51:02;100697.59;;;16.74;37.88
38227;BME280;24026;49.446;8.576;2023-03-15T08:53:23;100697.59;;;16.74;38.49
38227;BME280;24026;49.446;8.576;2023-03-15T08:55:43;100701.88;;;16.85;38.14
38227;BME280;24026;49.446;8.576;2023-03-15T08:58:04;100698.84;;;16.97;37.95
38227;BME280;24026;49.446;8.576;2023-03-15T09:00:24;100706.06;;;17.07;37.77
38227;BME280;24026;49.446;8.576;2023-03-15T09:02:49;100706.31;;;17.10;37.29
38227;BME280;24026;49.446;8.576;2023-03-15T09:05:11;100713.03;;;17.13;37.17
38227;BME280;24026;49.446;8.576;2023-03-15T09:07:32;100708.94;;;17.20;37.27
38227;BME280;24026;49.446;8.576;2023-03-15T09:09:52;100719.63;;;17.26;37.05
38227;BME280;24026;49.446;8.576;2023-03-15T09:12:14;100722.28;;;17.36;37.50
38227;BME280;24026;49.446;8.576;2023-03-15T09:14:35;100728.13;;;17.43;37.26
38227;BME280;24026;49.446;8.576;2023-03-15T09:16:55;100734.81;;;17.46;37.00
38227;BME280;24026;49.446;8.576;2023-03-15T09:19:16;100739.63;;;17.49;36.89
38227;BME280;24026;49.446;8.576;2023-03-15T09:21:36;100735.34;;;17.53;37.13
38227;BME280;24026;49.446;8.576;2023-03-15T09:23:57;100728.03;;;17.58;37.44
38227;BME280;24026;49.446;8.576;2023-03-15T09:26:17;100730.41;;;17.65;37.17
38227;BME280;24026;49.446;8.576;2023-03-15T09:28:37;100732.25;;;17.70;37.53
38227;BME280;24026;49.446;8.576;2023-03-15T09:30:58;100725.06;;;17.60;37.93
38227;BME280;24026;49.446;8.576;2023-03-15T09:33:19;100727.00;;;17.54;38.05
38227;BME280;24026;49.446;8.576;2023-03-15T09:35:41;100736.72;;;17.45;38.39
38227;BME280;24026;49.446;8.576;2023-03-15T09:38:02;100745.66;;;17.30;38.37
38227;BME280;24026;49.446;8.576;2023-03-15T09:40:29;100747.41;;;17.11;39.13
38227;BME280;24026;49.446;8.576;2023-03-15T09:48:17;100759.59;;;16.72;40.29
38227;BME280;24026;49.446;8.576;2023-03-15T09:50:59;100757.50;;;16.64;40.33
38227;BME280;24026;49.446;8.576;2023-03-15T09:53:32;100765.53;;;16.59;40.77
38227;BME280;24026;49.446;8.576;2023-03-15T09:55:57;100763.41;;;16.61;40.54
38227;BME280;24026;49.446;8.576;2023-03-15T09:58:24;100770.41;;;16.46;41.14
38227;BME280;24026;49.446;8.576;2023-03-15T10:00:52;100769.91;;;16.34;41.45
38227;BME280;24026;49.446;8.576;2023-03-15T10:06:01;100768.28;;;16.28;41.35
38227;BME280;24026;49.446;8.576;2023-03-15T10:08:24;100770.41;;;16.41;40.92
38227;BME280;24026;49.446;8.576;2023-03-15T10:13:35;100765.25;;;16.71;39.31
38227;BME280;24026;49.446;8.576;2023-03-15T10:16:14;100764.69;;;16.89;38.89
38227;BME280;24026;49.446;8.576;2023-03-15T10:18:41;100760.31;;;17.03;38.71
38227;BME280;24026;49.446;8.576;2023-03-15T10:21:15;100766.97;;;17.16;38.38
38227;BME280;24026;49.446;8.576;2023-03-15T10:23:49;100764.22;;;17.27;38.39
38227;BME280;24026;49.446;8.576;2023-03-15T10:26:14;100766.59;;;17.38;38.00
38227;BME280;24026;49.446;8.576;2023-03-15T10:28:38;100773.00;;;17.48;39.25
38227;BME280;24026;49.446;8.576;2023-03-15T10:31:00;100774.25;;;17.55;38.51
38227;BME280;24026;49.446;8.576;2023-03-15T10:33:30;100768.81;;;17.66;38.87
38227;BME280;24026;49.446;8.576;2023-03-15T10:35:52;100776.28;;;17.74;39.15
38227;BME280;24026;49.446;8.576;2023-03-15T10:38:20;100773.31;;;17.75;38.96
38227;BME280;24026;49.446;8.576;2023-03-15T10:40:47;100774.19;;;17.66;38.77
38227;BME280;24026;49.446;8.576;2023-03-15T10:43:16;100773.25;;;17.46;39.34
38227;BME280;24026;49.446;8.576;2023-03-15T10:45:37;100765.03;;;17.27;40.36
38227;BME280;24026;49.446;8.576;2023-03-15T10:47:57;100765.63;;;17.14;40.60
38227;BME280;24026;49.446;8.576;2023-03-15T10:50:27;100766.50;;;16.99;40.95
38227;BME280;24026;49.446;8.576;2023-03-15T10:52:48;100768.94;;;16.95;40.38
38227;BME280;24026;49.446;8.576;2023-03-15T10:55:15;100765.47;;;16.90;40.57
38227;BME280;24026;49.446;8.576;2023-03-15T10:57:50;100764.69;;;16.74;40.74
38227;BME280;24026;49.446;8.576;2023-03-15T11:00:27;100765.78;;;16.67;41.10
38227;BME280;24026;49.446;8.576;2023-03-15T11:02:51;100761.75;;;16.65;41.34
38227;BME280;24026;49.446;8.576;2023-03-15T11:05:19;100762.31;;;16.57;41.21
38227;BME280;24026;49.446;8.576;2023-03-15T11:07:59;100761.56;;;16.46;41.49
38227;BME280;24026;49.446;8.576;2023-03-15T11:10:22;100760.22;;;16.43;41.64
38227;BME280;24026;49.446;8.576;2023-03-15T11:12:44;100763.16;;;16.37;41.64
38227;BME280;24026;49.446;8.576;2023-03-15T11:15:11;100766.94;;;16.41;41.33
38227;BME280;24026;49.446;8.576;2023-03-15T11:17:35;100758.03;;;16.61;41.77
38227;BME280;24026;49.446;8.576;2023-03-15T11:20:05;100753.13;;;16.78;41.52
38227;BME280;24026;49.446;8.576;2023-03-15T11:22:35;100757.13;;;16.96;41.06
38227;BME280;24026;49.446;8.576;2023-03-15T11:24:55;100755.75;;;17.09;40.19
38227;BME280;24026;49.446;8.576;2023-03-15T11:27:18;100758.38;;;17.19;40.09
38227;BME280;24026;49.446;8.576;2023-03-15T11:29:46;100760.16;;;17.34;39.79
38227;BME280;24026;49.446;8.576;2023-03-15T11:32:16;100760.94;;;17.40;39.75
38227;BME280;24026;49.446;8.576;2023-03-15T11:34:47;100752.53;;;17.52;40.08
38227;BME280;24026;49.446;8.576;2023-03-15T11:37:48;100755.91;;;17.68;39.43
38227;BME280;24026;49.446;8.576;2023-03-15T11:40:17;100751.81;;;17.75;38.68
38227;BME280;24026;49.446;8.576;2023-03-15T11:43:00;100754.72;;;17.84;38.37
38227;BME280;24026;49.446;8.576;2023-03-15T11:48:15;100765.47;;;17.84;38.04
38227;BME280;24026;49.446;8.576;2023-03-15T11:50:37;100764.97;;;17.77;38.43
38227;BME280;24026;49.446;8.576;2023-03-15T11:52:58;100760.81;;;17.55;39.88
38227;BME280;24026;49.446;8.576;2023-03-15T11:55:27;100762.78;;;17.45;39.82
38227;BME280;24026;49.446;8.576;2023-03-15T11:57:48;100757.72;;;17.38;40.16
38227;BME280;24026;49.446;8.576;2023-03-15T12:02:56;100762.91;;;17.24;40.78
38227;BME280;24026;49.446;8.576;2023-03-15T12:05:43;100764.59;;;17.10;40.82
38227;BME280;24026;49.446;8.576;2023-03-15T12:08:18;100768.06;;;17.10;40.72
38227;BME280;24026;49.446;8.576;2023-03-15T12:10:43;100766.50;;;17.04;41.29
38227;BME280;24026;49.446;8.576;2023-03-15T12:13:16;100752.81;;;17.00;41.50
38227;BME280;24026;49.446;8.576;2023-03-15T12:17:58;100770.00;;;16.99;41.74
38227;BME280;24026;49.446;8.576;2023-03-15T12:20:35;100763.28;;;16.97;42.28
38227;BME280;24026;49.446;8.576;2023-03-15T12:25:38;100764.13;;;16.87;41.88
38227;BME280;24026;49.446;8.576;2023-03-15T12:28:09;100772.19;;;16.87;41.52
38227;BME280;24026;49.446;8.576;2023-03-15T12:30:41;100770.56;;;16.91;41.44
38227;BME280;24026;49.446;8.576;2023-03-15T12:33:02;100770.50;;;17.07;40.77
38227;BME280;24026;49.446;8.576;2023-03-15T12:35:27;100772.28;;;17.27;40.17
38227;BME280;24026;49.446;8.576;2023-03-15T12:37:50;100776.25;;;17.39;40.34
38227;BME280;24026;49.446;8.576;2023-03-15T12:42:58;100780.38;;;17.66;40.83
38227;BME280;24026;49.446;8.576;2023-03-15T12:50:48;100775.00;;;18.06;41.02
38227;BME280;24026;49.446;8.576;2023-03-15T12:55:51;100768.59;;;18.31;40.46
38227;BME280;24026;49.446;8.576;2023-03-15T12:58:12;100764.75;;;18.37;40.22
38227;BME280;24026;49.446;8.576;2023-03-15T13:00:36;100773.09;;;18.36;39.67
38227;BME280;24026;49.446;8.576;2023-03-15T13:03:07;100773.72;;;18.27;38.74
38227;BME280;24026;49.446;8.576;2023-03-15T13:08:36;100776.41;;;17.98;40.88